Latest Weather Observations for Mortlake

IDV60801

Issued at 4:42 pm EDT Tuesday 10 December 2019 (issued every 10 minutes, with the page automatically refreshed every 10 minutes)

About weather observations | Map of weather stations | Latest weather observations for VIC | Other Formats
Station Details ID: 090176 Name: MORTLAKE RACECOURSE Lat: -38.07 Lon: 142.77 Height: 130.0 m
Data from the previous 72 hours. | See also: Recent months at Mortlake
Date/Time
EDT
Temp
°C
App
Temp
°C
Dew
Point
°C
Rel
Hum
%
Delta-T
°C
Wind Press
QNH
hPa
Press
MSL
hPa
Rain since
9am
mm
Dir  Spd
km/h
Gust
km/h
Spd
kts
Gust
kts
10/04:30pm 15.9 11.4 8.4 61 3.8 S 22 32 12 17 1020.4 1020.2 0.0
10/04:00pm 16.8 12.7 8.5 58 4.3 S 20 32 11 17 1020.4 1020.2 0.0
10/03:30pm 15.9 11.5 7.4 57 4.3 S 20 30 11 16 1020.6 1020.4 0.0
10/03:00pm 16.8 13.4 9.0 60 4.0 S 17 26 9 14 1020.6 1020.4 0.0
10/02:30pm 15.7 11.5 8.2 61 3.8 S 20 32 11 17 1020.8 1020.6 0.0
10/02:00pm 16.3 12.8 8.8 61 3.9 S 17 26 9 14 1020.8 1020.6 0.0
10/01:30pm 15.0 10.7 7.8 62 3.6 S 20 30 11 16 1021.0 1020.8 0.0
10/01:00pm 14.7 10.4 8.0 64 3.4 SSW 20 30 11 16 1021.0 1020.8 0.0
10/12:30pm 14.7 11.1 8.2 65 3.3 SSW 17 30 9 16 1021.2 1021.0 0.0
10/12:00pm 13.7 9.5 8.3 70 2.7 SSW 20 33 11 18 1021.2 1021.0 0.0
10/11:30am 13.9 10.5 9.3 74 2.4 SSW 17 26 9 14 1021.2 1021.0 0.0
10/11:00am 12.8 8.9 8.7 76 2.1 S 19 24 10 13 1021.2 1021.0 0.0
10/10:30am 12.9 9.6 9.5 80 1.7 S 17 26 9 14 1021.3 1021.1 0.0
10/10:00am 12.1 8.7 9.1 82 1.5 S 17 24 9 13 1021.3 1021.1 0.0
10/09:30am 11.9 8.5 10.5 91 0.7 S 19 24 10 13 1021.0 1020.8 0.0
10/09:00am 11.6 7.9 11.6 100 0.0 SSW 22 30 12 16 1020.5 1020.3 4.2
10/08:30am 11.7 9.0 11.7 100 0.0 SSW 17 22 9 12 1020.1 1019.9 4.2
10/08:00am 11.7 9.4 11.7 100 0.0 S 15 22 8 12 1019.7 1019.5 4.2
10/07:30am 11.6 8.9 11.6 100 0.0 S 17 24 9 13 1019.5 1019.3 4.2
10/07:00am 11.3 7.9 11.3 100 0.0 SSW 20 26 11 14 1019.1 1018.9 4.2
10/06:30am 11.5 9.9 11.5 100 0.0 SSW 11 15 6 8 1018.7 1018.5 4.2
10/06:00am 11.5 9.1 11.5 100 0.0 SSW 15 19 8 10 1018.5 1018.3 4.2
10/05:30am 11.5 10.8 11.5 100 0.0 SSW 6 9 3 5 1018.1 1017.9 3.8
10/05:00am 11.3 10.4 11.3 100 0.0 SSW 7 9 4 5 1017.9 1017.7 3.8
10/04:30am 11.5 10.3 11.5 100 0.0 SSW 9 13 5 7 1018.0 1017.8 3.8
10/04:00am 11.6 10.4 11.6 100 0.0 SSW 9 15 5 8 1018.2 1018.0 3.8
10/03:30am 11.6 10.4 11.6 100 0.0 SSW 9 13 5 7 1018.3 1018.1 3.6
10/03:00am 11.8 9.9 11.8 100 0.0 S 13 19 7 10 1018.1 1017.9 3.2
10/02:30am 12.0 10.9 12.0 100 0.0 S 9 13 5 7 1017.9 1017.7 3.2
10/02:00am 11.9 10.8 11.9 100 0.0 S 9 15 5 8 1017.5 1017.3 3.0
10/01:30am 12.0 9.0 12.0 100 0.0 S 19 26 10 14 1017.1 1016.9 3.0
10/01:00am 12.1 9.5 12.1 100 0.0 SSW 17 24 9 13 1017.4 1017.2 3.0
10/12:30am 12.3 9.8 12.3 100 0.0 SSW 17 24 9 13 1017.5 1017.3 3.0
10/12:00am 12.5 12.5 12.5 100 0.0 SSW 4 6 2 3 1018.5 1018.3 3.0
 
Date/Time
EDT
Temp
°C
App
Temp
°C
Dew
Point
°C
Rel
Hum
%
Delta-T
°C
Wind Press
QNH
hPa
Press
MSL
hPa
Rain since
9am
mm
Dir  Spd
km/h
Gust
km/h
Spd
kts
Gust
kts
09/11:30pm 12.5 10.8 12.5 100 0.0 SSW 13 19 7 10 1018.1 1017.9 3.0
09/11:00pm 12.5 10.8 12.5 100 0.0 SW 13 17 7 9 1018.2 1018.0 2.4
09/10:30pm 12.6 10.2 12.6 100 0.0 SW 17 24 9 13 1018.1 1017.9 2.4
09/10:00pm 12.7 9.9 12.7 100 0.0 SW 19 30 10 16 1017.6 1017.4 2.4
09/09:30pm 12.8 10.8 12.8 100 0.0 SW 15 26 8 14 1017.1 1016.9 2.4
09/09:00pm 13.0 8.6 13.0 100 0.0 SW 28 50 15 27 1017.7 1017.5 2.2
09/08:43pm 13.0 7.9 13.0 100 0.0 SW 32 52 17 28 1017.0 1016.8 1.8
09/08:41pm 13.0 9.0 13.0 100 0.0 SW 26 48 14 26 1017.1 1016.9 1.8
09/08:30pm 13.2 11.0 13.2 100 0.0 WSW 17 26 9 14 1018.3 1018.1 1.6
09/08:00pm 13.4 10.3 13.4 100 0.0 SW 22 32 12 17 1017.2 1017.0 0.0
09/07:30pm 13.6 10.2 13.6 100 0.0 SSW 24 33 13 18 1016.5 1016.3 0.0
09/07:00pm 13.9 10.2 13.9 100 0.0 SW 26 37 14 20 1016.2 1016.0 0.0
09/06:30pm 14.4 9.8 13.6 95 0.4 SW 30 39 16 21 1015.6 1015.4 0.0
09/06:00pm 15.0 11.3 13.9 93 0.6 SW 26 39 14 21 1015.0 1014.8 0.0
09/05:30pm 17.1 12.7 14.0 82 1.8 SW 30 43 16 23 1014.5 1014.2 0.0
09/05:00pm 18.0 14.3 14.9 82 1.8 SW 28 35 15 19 1013.9 1013.6 0.0
09/04:32pm 19.9 15.8 13.8 68 3.5 SW 28 50 15 27 1013.5 1013.3 0.0
09/04:30pm 20.8 17.5 14.0 65 4.0 SW 24 43 13 23 1013.1 1012.9 0.0
09/04:00pm 21.9 18.9 12.5 55 5.4 SW 20 28 11 15 1012.3 1012.1 0.0
09/03:30pm 21.5 18.5 12.1 55 5.3 SW 19 28 10 15 1013.3 1013.1 0.0
09/03:00pm 21.0 15.7 11.1 53 5.5 SW 30 43 16 23 1013.9 1013.6 0.0
09/02:30pm 23.5 17.5 10.9 45 7.0 SW 33 46 18 25 1012.9 1012.7 0.0
09/02:26pm 24.5 18.4 10.4 41 7.9 SW 33 46 18 25 1012.8 1012.6 0.0
09/02:13pm 29.5 26.4 11.5 33 10.5 SW 19 44 10 24 1011.9 1011.7 0.0
09/02:00pm 31.8 32.7 14.0 34 10.9 SSE 2 6 1 3 1011.3 1011.1 0.0
09/01:30pm 29.2 30.1 16.0 44 8.2 ESE 6 9 3 5 1011.5 1011.3 0.0
09/01:00pm 28.1 27.6 12.8 38 9.0 ESE 7 11 4 6 1011.8 1011.6 0.0
09/12:30pm 26.9 27.5 15.3 49 7.1 SE 6 7 3 4 1012.1 1011.9 0.0
09/12:00pm 26.1 26.7 15.2 51 6.6 SE 6 7 3 4 1012.3 1012.1 0.0
09/11:30am 26.5 25.5 11.0 38 8.8 S 7 9 4 5 1012.9 1012.7 0.0
09/11:00am 27.8 25.9 10.5 34 9.8 SW 11 20 6 11 1013.0 1012.8 0.0
09/10:30am 30.4 24.0 3.4 18 13.8 NNW 26 41 14 22 1012.4 1012.2 0.0
09/10:00am 28.0 21.4 4.3 22 12.1 N 28 37 15 20 1012.4 1012.2 0.0
09/09:30am 27.2 20.2 4.3 23 11.6 N 30 37 16 20 1012.3 1012.1 0.0
09/09:00am 27.8 21.7 4.8 23 11.8 N 26 35 14 19 1012.2 1012.0 0.0
09/08:30am 25.9 19.4 4.9 26 10.7 N 28 39 15 21 1012.2 1012.0 0.0
09/08:00am 24.9 18.8 4.6 27 10.2 N 26 37 14 20 1012.0 1011.8 0.0
09/07:30am 24.2 19.3 5.1 29 9.7 N 20 32 11 17 1012.0 1011.8 0.0
09/07:00am 20.4 16.7 6.4 40 7.1 N 15 22 8 12 1011.6 1011.4 0.0
09/06:30am 17.3 13.5 5.9 47 5.6 N 15 19 8 10 1011.5 1011.3 0.0
09/06:00am 16.0 12.2 5.6 50 5.0 NNE 15 19 8 10 1011.4 1011.2 0.0
09/05:30am 13.9 11.0 6.3 60 3.7 NNE 11 17 6 9 1011.4 1011.2 0.0
09/05:00am 15.2 12.8 5.4 52 4.7 NNW 7 11 4 6 1011.8 1011.6 0.0
09/04:30am 18.5 14.1 5.0 41 6.6 NNE 17 26 9 14 1010.6 1010.4 0.0
09/04:00am 16.8 13.4 6.0 49 5.3 NNE 13 19 7 10 1011.1 1010.9 0.0
09/03:30am 16.6 12.7 7.0 53 4.8 NNE 17 22 9 12 1011.6 1011.4 0.0
09/03:00am 17.9 14.4 7.0 49 5.5 NNE 15 22 8 12 1011.8 1011.6 0.0
09/02:30am 14.0 12.2 11.0 82 1.6 ESE 11 13 6 7 1012.5 1012.3 0.0
09/02:00am 14.1 12.5 11.4 84 1.4 ESE 11 15 6 8 1013.1 1012.9 0.0
09/01:30am 14.3 12.0 11.6 84 1.5 E 15 19 8 10 1013.4 1013.2 0.0
09/01:00am 14.3 12.0 11.8 85 1.4 E 15 20 8 11 1013.9 1013.6 0.0
09/12:30am 14.8 12.9 11.8 82 1.6 ENE 13 20 7 11 1014.3 1014.0 0.0
09/12:00am 15.3 12.6 11.7 79 2.0 E 17 26 9 14 1014.4 1014.1 0.0
 
Date/Time
EDT
Temp
°C
App
Temp
°C
Dew
Point
°C
Rel
Hum
%
Delta-T
°C
Wind Press
QNH
hPa
Press
MSL
hPa
Rain since
9am
mm
Dir  Spd
km/h
Gust
km/h
Spd
kts
Gust
kts
08/11:30pm 16.0 12.8 11.4 74 2.5 E 19 28 10 15 1014.8 1014.5 0.0
08/11:00pm 17.0 13.6 11.3 69 3.1 E 20 32 11 17 1014.9 1014.6 0.0
08/10:30pm 17.9 14.6 11.7 67 3.4 E 20 28 11 15 1014.9 1014.6 0.0
08/10:00pm 18.7 15.7 12.0 65 3.7 E 19 30 10 16 1015.0 1014.8 0.0
08/09:30pm 19.8 16.8 12.1 61 4.3 E 19 24 10 13 1015.1 1014.9 0.0
08/09:00pm 21.1 18.9 12.0 56 5.1 E 15 22 8 12 1015.1 1014.9 0.0
08/08:30pm 22.4 21.4 12.4 53 5.7 E 9 17 5 9 1015.2 1015.0 0.0
08/08:00pm 23.4 21.7 12.4 50 6.3 ESE 13 17 7 9 1015.2 1015.0 0.0
08/07:30pm 24.7 21.8 12.3 46 7.1 ESE 19 24 10 13 1014.9 1014.6 0.0
08/07:00pm 26.0 23.6 12.8 44 7.7 ESE 17 24 9 13 1014.7 1014.4 0.0
08/06:30pm 26.6 23.4 11.9 40 8.5 ESE 20 26 11 14 1014.5 1014.2 0.0
08/06:00pm 28.7 26.2 8.4 28 11.2 ESE 11 19 6 10 1014.6 1014.3 0.0
08/05:30pm 28.7 26.1 7.9 27 11.3 E 11 20 6 11 1014.8 1014.5 0.0
08/05:00pm 28.6 26.0 7.8 27 11.3 NE 11 15 6 8 1015.0 1014.8 0.0
08/04:30pm 28.5 26.1 8.7 29 10.9 NE 11 17 6 9 1015.3 1015.1 0.0
08/04:00pm 28.1 26.2 8.9 30 10.6 N 9 17 5 9 1015.4 1015.2 0.0
08/03:30pm 27.6 24.8 9.9 33 9.9 ENE 15 24 8 13 1015.6 1015.4 0.0
08/03:00pm 26.9 25.0 10.6 36 9.2 E 11 19 6 10 1015.9 1015.7 0.0
08/02:30pm 25.6 23.3 9.0 35 9.1 ENE 11 19 6 10 1016.5 1016.3 0.0
08/02:00pm 25.5 23.8 9.7 37 8.7 ENE 9 20 5 11 1016.5 1016.3 0.0
08/01:30pm 24.8 22.1 5.6 29 9.8 NE 9 17 5 9 1017.1 1016.9 0.0
08/01:00pm 24.4 22.0 8.8 37 8.4 ENE 11 19 6 10 1017.5 1017.3 0.0
08/12:30pm 23.4 21.2 9.4 41 7.6 ENE 11 20 6 11 1017.8 1017.6 0.0
08/12:00pm 22.0 19.0 7.8 40 7.4 ENE 13 26 7 14 1018.0 1017.8 0.0
08/11:30am 20.5 17.5 9.4 49 5.9 NE 15 24 8 13 1018.1 1017.9 0.0
08/11:00am 19.8 17.9 10.5 55 5.1 NE 11 19 6 10 1018.6 1018.4 0.0
08/10:30am 18.2 15.2 10.8 62 4.0 NE 17 22 9 12 1018.3 1018.1 0.0
08/10:00am 16.8 14.2 10.6 67 3.3 ENE 15 20 8 11 1018.4 1018.2 0.0
08/09:30am 16.1 14.0 11.3 73 2.6 ENE 13 22 7 12 1018.9 1018.7 0.0
08/09:00am 14.0 11.2 10.0 77 2.1 ENE 15 20 8 11 1019.0 1018.8 0.0
08/08:30am 12.9 10.6 10.4 85 1.3 ENE 13 17 7 9 1019.2 1019.0 0.0
08/08:00am 12.2 9.9 10.4 89 0.9 NE 13 20 7 11 1018.9 1018.7 0.0
08/07:30am 10.8 9.7 10.8 100 0.0 ENE 7 9 4 5 1018.8 1018.6 0.0
08/07:00am 9.7 8.5 9.7 100 0.0 E 6 9 3 5 1018.9 1018.7 0.0
08/06:30am 8.5 7.0 8.5 100 0.0 ENE 6 11 3 6 1018.5 1018.3 0.0
08/06:00am 8.0 6.4 8.0 100 0.0 E 6 6 3 3 1018.5 1018.3 0.0
08/05:30am 8.5 8.0 7.9 96 0.3 CALM 0 2 0 1 1018.5 1018.3 0.0
08/05:00am 9.7 8.7 8.9 95 0.4 ENE 4 6 2 3 1018.1 1017.9 0.0
08/04:30am 10.2 9.2 9.0 92 0.6 ENE 4 7 2 4 1018.2 1018.0 0.0
08/04:00am 10.8 9.3 9.2 90 0.8 E 7 9 4 5 1018.3 1018.1 0.0
08/03:30am 11.0 9.4 8.9 87 1.0 E 7 11 4 6 1018.4 1018.2 0.0
08/03:00am 11.2 10.0 9.5 89 0.9 ESE 6 7 3 4 1018.7 1018.5 0.0
08/02:30am 11.2 10.4 9.6 90 0.8 SE 4 9 2 5 1019.1 1018.9 0.0
08/02:00am 11.2 9.8 9.6 90 0.8 SE 7 15 4 8 1019.0 1018.8 0.0
08/01:30am 11.2 9.9 9.3 88 1.0 ESE 6 9 3 5 1019.3 1019.1 0.0
08/01:00am 11.2 10.3 9.3 88 1.0 S 4 7 2 4 1019.5 1019.3 0.0
08/12:30am 11.3 10.1 9.4 88 1.0 SE 6 9 3 5 1019.5 1019.3 0.0
08/12:00am 11.4 10.2 9.5 88 1.0 SE 6 9 3 5 1019.7 1019.5 0.0
 
Date/Time
EDT
Temp
°C
App
Temp
°C
Dew
Point
°C
Rel
Hum
%
Delta-T
°C
Wind Press
QNH
hPa
Press
MSL
hPa
Rain since
9am
mm
Dir  Spd
km/h
Gust
km/h
Spd
kts
Gust
kts
07/11:30pm 11.4 10.2 9.7 89 0.9 S 6 7 3 4 1019.6 1019.4 0.0
07/11:00pm 11.4 10.2 9.7 89 0.9 SSW 6 7 3 4 1019.9 1019.7 0.0
07/10:30pm 11.6 9.9 9.9 89 0.9 S 9 13 5 7 1019.8 1019.6 0.0
07/10:00pm 10.3 9.5 9.7 96 0.3 SSE 4 7 2 4 1019.5 1019.3 0.0
07/09:30pm 9.7 8.4 9.2 97 0.2 S 6 6 3 3 1019.4 1019.2 0.0
07/09:00pm 9.7 8.1 8.6 93 0.5 S 7 9 4 5 1019.1 1018.9 0.0
07/08:30pm 11.2 8.8 8.8 85 1.2 SSW 11 15 6 8 1018.7 1018.5 0.0
07/08:00pm 12.6 9.8 8.7 77 2.0 SSW 13 19 7 10 1018.7 1018.5 0.0
07/07:30pm 14.0 10.2 9.0 72 2.6 SSW 19 26 10 14 1018.6 1018.4 0.0
07/07:00pm 15.4 11.7 9.5 68 3.1 SSW 19 30 10 16 1018.2 1018.0 0.0
07/06:30pm 16.3 12.6 10.2 67 3.2 SSW 20 28 11 15 1017.9 1017.7 0.0
07/06:00pm 16.6 12.8 9.8 64 3.6 SSW 20 32 11 17 1017.8 1017.6 0.0
07/05:30pm 16.6 12.7 9.5 63 3.7 SSW 20 30 11 16 1017.7 1017.5 0.0
07/05:00pm 17.0 13.2 9.9 63 3.8 SSW 20 30 11 16 1017.7 1017.5 0.0

Other formats

Comma delimited format used in spreadsheet applications
http://www.bom.gov.au/fwo/IDV60801/IDV60801.94840.axf

JavaScript Object Notation format (JSON) in row-major order
http://www.bom.gov.au/fwo/IDV60801/IDV60801.94840.json

Data quality

Most of these data are generated automatically and are frequently updated. Quality checks on data are not normally performed. It is possible for incorrect values to appear. Refer to information at About Latest Weather Observations and please check the disclaimer before using these data.